sensor_id;sensor_type;location;lat;lon;timestamp;temperature;humidity
69503;SHT31;56704;54.242;12.442;2023-05-10T00:00:20;10.81;58.33
69503;SHT31;56704;54.242;12.442;2023-05-10T00:02:47;10.85;58.43
69503;SHT31;56704;54.242;12.442;2023-05-10T00:05:14;10.83;58.21
69503;SHT31;56704;54.242;12.442;2023-05-10T00:07:41;10.88;58.14
69503;SHT31;56704;54.242;12.442;2023-05-10T00:10:10;10.86;58.21
69503;SHT31;56704;54.242;12.442;2023-05-10T00:12:38;10.91;57.91
69503;SHT31;56704;54.242;12.442;2023-05-10T00:15:06;10.91;58.00
69503;SHT31;56704;54.242;12.442;2023-05-10T00:17:33;10.89;58.08
69503;SHT31;56704;54.242;12.442;2023-05-10T00:19:59;10.91;57.93
69503;SHT31;56704;54.242;12.442;2023-05-10T00:22:26;10.91;57.88
69503;SHT31;56704;54.242;12.442;2023-05-10T00:24:53;10.92;58.01
69503;SHT31;56704;54.242;12.442;2023-05-10T00:27:19;10.89;58.23
69503;SHT31;56704;54.242;12.442;2023-05-10T00:29:47;10.85;58.28
69503;SHT31;56704;54.242;12.442;2023-05-10T00:32:14;10.83;58.40
69503;SHT31;56704;54.242;12.442;2023-05-10T00:34:41;10.83;58.26
69503;SHT31;56704;54.242;12.442;2023-05-10T00:37:08;10.75;58.61
69503;SHT31;56704;54.242;12.442;2023-05-10T00:39:34;10.75;58.65
69503;SHT31;56704;54.242;12.442;2023-05-10T00:42:01;10.72;58.80
69503;SHT31;56704;54.242;12.442;2023-05-10T00:44:29;10.65;59.06
69503;SHT31;56704;54.242;12.442;2023-05-10T00:46:58;10.64;59.14
69503;SHT31;56704;54.242;12.442;2023-05-10T00:49:25;10.58;59.27
69503;SHT31;56704;54.242;12.442;2023-05-10T00:51:52;10.57;59.45
69503;SHT31;56704;54.242;12.442;2023-05-10T00:54:19;10.50;59.56
69503;SHT31;56704;54.242;12.442;2023-05-10T00:56:46;10.51;59.61
69503;SHT31;56704;54.242;12.442;2023-05-10T00:59:14;10.50;59.81
69503;SHT31;56704;54.242;12.442;2023-05-10T01:01:42;10.51;59.73
69503;SHT31;56704;54.242;12.442;2023-05-10T01:04:10;10.42;60.17
69503;SHT31;56704;54.242;12.442;2023-05-10T01:06:38;10.42;60.20
69503;SHT31;56704;54.242;12.442;2023-05-10T01:09:04;10.37;60.41
69503;SHT31;56704;54.242;12.442;2023-05-10T01:11:31;10.34;60.59
69503;SHT31;56704;54.242;12.442;2023-05-10T01:13:58;10.29;60.73
69503;SHT31;56704;54.242;12.442;2023-05-10T01:16:26;10.25;61.08
69503;SHT31;56704;54.242;12.442;2023-05-10T01:18:53;10.17;61.13
69503;SHT31;56704;54.242;12.442;2023-05-10T01:21:27;10.20;61.06
69503;SHT31;56704;54.242;12.442;2023-05-10T01:24:12;10.20;61.06
69503;SHT31;56704;54.242;12.442;2023-05-10T01:33:26;10.07;61.61
69503;SHT31;56704;54.242;12.442;2023-05-10T01:35:59;10.09;61.66
69503;SHT31;56704;54.242;12.442;2023-05-10T01:38:42;10.09;61.88
69503;SHT31;56704;54.242;12.442;2023-05-10T01:41:16;10.00;61.93
69503;SHT31;56704;54.242;12.442;2023-05-10T01:43:50;10.01;61.94
69503;SHT31;56704;54.242;12.442;2023-05-10T01:46:24;9.99;62.01
69503;SHT31;56704;54.242;12.442;2023-05-10T01:48:57;9.96;62.13
69503;SHT31;56704;54.242;12.442;2023-05-10T01:51:25;9.93;62.17
69503;SHT31;56704;54.242;12.442;2023-05-10T01:53:59;9.92;62.35
69503;SHT31;56704;54.242;12.442;2023-05-10T01:56:28;9.90;62.50
69503;SHT31;56704;54.242;12.442;2023-05-10T01:58:56;9.89;62.59
69503;SHT31;56704;54.242;12.442;2023-05-10T02:01:24;9.85;62.77
69503;SHT31;56704;54.242;12.442;2023-05-10T02:03:51;9.83;62.83
69503;SHT31;56704;54.242;12.442;2023-05-10T02:06:22;9.85;62.86
69503;SHT31;56704;54.242;12.442;2023-05-10T02:08:50;9.79;63.14
69503;SHT31;56704;54.242;12.442;2023-05-10T02:11:19;9.76;63.29
69503;SHT31;56704;54.242;12.442;2023-05-10T02:13:48;9.78;63.35
69503;SHT31;56704;54.242;12.442;2023-05-10T02:16:16;9.69;63.71
69503;SHT31;56704;54.242;12.442;2023-05-10T02:18:44;9.70;63.49
69503;SHT31;56704;54.242;12.442;2023-05-10T02:21:13;9.68;63.70
69503;SHT31;56704;54.242;12.442;2023-05-10T02:23:42;9.65;63.87
69503;SHT31;56704;54.242;12.442;2023-05-10T02:26:10;9.62;64.02
69503;SHT31;56704;54.242;12.442;2023-05-10T02:28:39;9.63;64.00
69503;SHT31;56704;54.242;12.442;2023-05-10T02:31:07;9.63;63.79
69503;SHT31;56704;54.242;12.442;2023-05-10T02:33:35;9.65;63.86
69503;SHT31;56704;54.242;12.442;2023-05-10T02:36:02;9.61;64.03
69503;SHT31;56704;54.242;12.442;2023-05-10T02:38:30;9.62;64.20
69503;SHT31;56704;54.242;12.442;2023-05-10T02:41:01;9.68;63.76
69503;SHT31;56704;54.242;12.442;2023-05-10T02:43:30;9.61;64.03
69503;SHT31;56704;54.242;12.442;2023-05-10T02:45:58;9.61;64.03
69503;SHT31;56704;54.242;12.442;2023-05-10T02:48:25;9.61;64.02
69503;SHT31;56704;54.242;12.442;2023-05-10T02:50:52;9.58;64.15
69503;SHT31;56704;54.242;12.442;2023-05-10T02:53:23;9.63;63.83
69503;SHT31;56704;54.242;12.442;2023-05-10T02:55:57;9.63;63.93
69503;SHT31;56704;54.242;12.442;2023-05-10T02:58:27;9.61;63.97
69503;SHT31;56704;54.242;12.442;2023-05-10T03:00:53;9.62;63.97
69503;SHT31;56704;54.242;12.442;2023-05-10T03:03:20;9.58;63.98
69503;SHT31;56704;54.242;12.442;2023-05-10T03:05:47;9.59;64.07
69503;SHT31;56704;54.242;12.442;2023-05-10T03:08:13;9.59;64.16
69503;SHT31;56704;54.242;12.442;2023-05-10T03:10:48;9.62;63.95
69503;SHT31;56704;54.242;12.442;2023-05-10T03:13:25;9.62;63.93
69503;SHT31;56704;54.242;12.442;2023-05-10T03:16:00;9.63;64.10
69503;SHT31;56704;54.242;12.442;2023-05-10T03:18:38;9.66;63.81
69503;SHT31;56704;54.242;12.442;2023-05-10T03:21:07;9.66;63.87
69503;SHT31;56704;54.242;12.442;2023-05-10T03:23:40;9.58;64.24
69503;SHT31;56704;54.242;12.442;2023-05-10T03:26:08;9.59;64.13
69503;SHT31;56704;54.242;12.442;2023-05-10T03:28:35;9.58;64.25
69503;SHT31;56704;54.242;12.442;2023-05-10T03:31:04;9.59;64.19
69503;SHT31;56704;54.242;12.442;2023-05-10T03:33:32;9.58;64.32
69503;SHT31;56704;54.242;12.442;2023-05-10T03:35:58;9.62;64.19
69503;SHT31;56704;54.242;12.442;2023-05-10T03:38:25;9.59;64.32
69503;SHT31;56704;54.242;12.442;2023-05-10T03:40:51;9.59;64.28
69503;SHT31;56704;54.242;12.442;2023-05-10T03:43:18;9.63;64.24
69503;SHT31;56704;54.242;12.442;2023-05-10T03:45:45;9.61;64.30
69503;SHT31;56704;54.242;12.442;2023-05-10T03:48:13;9.66;64.07
69503;SHT31;56704;54.242;12.442;2023-05-10T03:50:40;9.66;64.17
69503;SHT31;56704;54.242;12.442;2023-05-10T03:53:06;9.69;64.11
69503;SHT31;56704;54.242;12.442;2023-05-10T03:55:33;9.66;64.23
69503;SHT31;56704;54.242;12.442;2023-05-10T03:58:01;9.69;64.23
69503;SHT31;56704;54.242;12.442;2023-05-10T04:00:28;9.72;64.09
69503;SHT31;56704;54.242;12.442;2023-05-10T04:02:55;9.73;64.05
69503;SHT31;56704;54.242;12.442;2023-05-10T04:05:23;9.78;64.13
69503;SHT31;56704;54.242;12.442;2023-05-10T04:07:49;9.78;64.00
69503;SHT31;56704;54.242;12.442;2023-05-10T04:10:16;9.83;63.78
69503;SHT31;56704;54.242;12.442;2023-05-10T04:12:43;9.89;63.63
69503;SHT31;56704;54.242;12.442;2023-05-10T04:15:10;9.93;63.62
69503;SHT31;56704;54.242;12.442;2023-05-10T04:17:36;9.97;63.66
69503;SHT31;56704;54.242;12.442;2023-05-10T04:20:04;9.99;63.83
69503;SHT31;56704;54.242;12.442;2023-05-10T04:22:33;10.03;63.55
69503;SHT31;56704;54.242;12.442;2023-05-10T04:25:00;10.06;63.47
69503;SHT31;56704;54.242;12.442;2023-05-10T04:27:26;10.13;63.50
69503;SHT31;56704;54.242;12.442;2023-05-10T04:29:53;10.13;63.33
69503;SHT31;56704;54.242;12.442;2023-05-10T04:32:20;10.17;63.33
69503;SHT31;56704;54.242;12.442;2023-05-10T04:34:46;10.24;63.29
69503;SHT31;56704;54.242;12.442;2023-05-10T04:37:13;10.29;63.15
69503;SHT31;56704;54.242;12.442;2023-05-10T04:39:41;10.30;63.10
69503;SHT31;56704;54.242;12.442;2023-05-10T04:42:07;10.36;62.83
69503;SHT31;56704;54.242;12.442;2023-05-10T04:44:34;10.42;62.76
69503;SHT31;56704;54.242;12.442;2023-05-10T04:47:01;10.48;62.60
69503;SHT31;56704;54.242;12.442;2023-05-10T04:49:28;10.54;62.59
69503;SHT31;56704;54.242;12.442;2023-05-10T04:51:56;10.57;62.30
69503;SHT31;56704;54.242;12.442;2023-05-10T04:54:23;10.64;62.09
69503;SHT31;56704;54.242;12.442;2023-05-10T04:56:51;10.71;61.97
69503;SHT31;56704;54.242;12.442;2023-05-10T04:59:17;10.78;61.38
69503;SHT31;56704;54.242;12.442;2023-05-10T05:01:44;10.88;61.58
69503;SHT31;56704;54.242;12.442;2023-05-10T05:04:10;10.91;61.46
69503;SHT31;56704;54.242;12.442;2023-05-10T05:06:37;10.99;61.27
69503;SHT31;56704;54.242;12.442;2023-05-10T05:09:04;11.02;60.78
69503;SHT31;56704;54.242;12.442;2023-05-10T05:11:30;11.09;61.17
69503;SHT31;56704;54.242;12.442;2023-05-10T05:13:58;11.18;61.24
69503;SHT31;56704;54.242;12.442;2023-05-10T05:16:25;11.24;60.90
69503;SHT31;56704;54.242;12.442;2023-05-10T05:18:52;11.27;60.56
69503;SHT31;56704;54.242;12.442;2023-05-10T05:21:19;11.34;60.68
69503;SHT31;56704;54.242;12.442;2023-05-10T05:23:46;11.40;60.35
69503;SHT31;56704;54.242;12.442;2023-05-10T05:26:13;11.51;60.33
69503;SHT31;56704;54.242;12.442;2023-05-10T05:28:40;11.64;60.54
69503;SHT31;56704;54.242;12.442;2023-05-10T05:31:08;11.61;59.69
69503;SHT31;56704;54.242;12.442;2023-05-10T05:33:34;11.70;60.03
69503;SHT31;56704;54.242;12.442;2023-05-10T05:36:01;11.75;59.79
69503;SHT31;56704;54.242;12.442;2023-05-10T05:38:28;11.84;59.20
69503;SHT31;56704;54.242;12.442;2023-05-10T05:40:55;11.90;59.15
69503;SHT31;56704;54.242;12.442;2023-05-10T05:43:22;11.99;58.94
69503;SHT31;56704;54.242;12.442;2023-05-10T05:45:48;12.06;58.52
69503;SHT31;56704;54.242;12.442;2023-05-10T05:48:16;12.18;58.89
69503;SHT31;56704;54.242;12.442;2023-05-10T05:50:43;12.25;58.65
69503;SHT31;56704;54.242;12.442;2023-05-10T05:53:10;12.25;58.37
69503;SHT31;56704;54.242;12.442;2023-05-10T05:55:37;12.32;57.67
69503;SHT31;56704;54.242;12.442;2023-05-10T05:58:03;12.39;57.73
69503;SHT31;56704;54.242;12.442;2023-05-10T06:00:30;12.46;57.59
69503;SHT31;56704;54.242;12.442;2023-05-10T06:02:57;12.49;56.86
69503;SHT31;56704;54.242;12.442;2023-05-10T06:05:25;12.60;57.08
69503;SHT31;56704;54.242;12.442;2023-05-10T06:07:51;12.66;56.76
69503;SHT31;56704;54.242;12.442;2023-05-10T06:10:18;12.79;56.99
69503;SHT31;56704;54.242;12.442;2023-05-10T06:12:44;12.83;56.50
69503;SHT31;56704;54.242;12.442;2023-05-10T06:15:11;12.90;56.58
69503;SHT31;56704;54.242;12.442;2023-05-10T06:17:38;13.04;56.57
69503;SHT31;56704;54.242;12.442;2023-05-10T06:20:06;13.18;56.44
69503;SHT31;56704;54.242;12.442;2023-05-10T06:22:34;13.15;55.39
69503;SHT31;56704;54.242;12.442;2023-05-10T06:25:01;13.21;55.23
69503;SHT31;56704;54.242;12.442;2023-05-10T06:27:28;13.21;54.79
69503;SHT31;56704;54.242;12.442;2023-05-10T06:29:54;13.30;54.98
69503;SHT31;56704;54.242;12.442;2023-05-10T06:32:21;13.38;54.81
69503;SHT31;56704;54.242;12.442;2023-05-10T06:34:48;13.44;54.61
69503;SHT31;56704;54.242;12.442;2023-05-10T06:37:14;13.57;55.20
69503;SHT31;56704;54.242;12.442;2023-05-10T06:39:42;13.52;54.08
69503;SHT31;56704;54.242;12.442;2023-05-10T06:42:09;13.76;54.47
69503;SHT31;56704;54.242;12.442;2023-05-10T06:44:35;13.86;54.48
69503;SHT31;56704;54.242;12.442;2023-05-10T06:47:02;13.99;54.49
69503;SHT31;56704;54.242;12.442;2023-05-10T06:49:29;13.99;53.85
69503;SHT31;56704;54.242;12.442;2023-05-10T06:51:55;13.98;53.22
69503;SHT31;56704;54.242;12.442;2023-05-10T06:54:22;14.05;53.78
69503;SHT31;56704;54.242;12.442;2023-05-10T06:56:50;14.31;54.19
69503;SHT31;56704;54.242;12.442;2023-05-10T06:59:17;14.37;53.55
69503;SHT31;56704;54.242;12.442;2023-05-10T07:01:44;14.30;53.20
69503;SHT31;56704;54.242;12.442;2023-05-10T07:04:11;14.48;53.67
69503;SHT31;56704;54.242;12.442;2023-05-10T07:06:38;14.64;52.59
69503;SHT31;56704;54.242;12.442;2023-05-10T07:09:04;14.57;52.50
69503;SHT31;56704;54.242;12.442;2023-05-10T07:11:32;14.63;51.74
69503;SHT31;56704;54.242;12.442;2023-05-10T07:14:00;14.88;51.91
69503;SHT31;56704;54.242;12.442;2023-05-10T07:16:27;15.19;52.20
69503;SHT31;56704;54.242;12.442;2023-05-10T07:18:54;15.49;50.16
69503;SHT31;56704;54.242;12.442;2023-05-10T07:21:21;15.70;49.11
69503;SHT31;56704;54.242;12.442;2023-05-10T07:23:49;16.02;48.80
69503;SHT31;56704;54.242;12.442;2023-05-10T07:26:15;16.29;48.94
69503;SHT31;56704;54.242;12.442;2023-05-10T07:28:42;16.49;48.70
69503;SHT31;56704;54.242;12.442;2023-05-10T07:31:10;16.45;47.04
69503;SHT31;56704;54.242;12.442;2023-05-10T07:33:36;16.73;46.72
69503;SHT31;56704;54.242;12.442;2023-05-10T07:36:03;16.80;46.62
69503;SHT31;56704;54.242;12.442;2023-05-10T07:38:30;17.00;47.00
69503;SHT31;56704;54.242;12.442;2023-05-10T07:40:56;16.99;46.28
69503;SHT31;56704;54.242;12.442;2023-05-10T07:43:23;17.08;46.23
69503;SHT31;56704;54.242;12.442;2023-05-10T07:45:50;17.34;45.70
69503;SHT31;56704;54.242;12.442;2023-05-10T07:48:18;17.37;45.77
69503;SHT31;56704;54.242;12.442;2023-05-10T07:50:45;17.28;45.27
69503;SHT31;56704;54.242;12.442;2023-05-10T07:53:12;17.02;45.42
69503;SHT31;56704;54.242;12.442;2023-05-10T07:55:38;17.24;45.89
69503;SHT31;56704;54.242;12.442;2023-05-10T07:58:05;17.14;46.31
69503;SHT31;56704;54.242;12.442;2023-05-10T08:00:32;17.24;46.15
69503;SHT31;56704;54.242;12.442;2023-05-10T08:02:58;17.04;46.95
69503;SHT31;56704;54.242;12.442;2023-05-10T08:05:26;17.37;46.80
69503;SHT31;56704;54.242;12.442;2023-05-10T08:07:53;17.24;46.21
69503;SHT31;56704;54.242;12.442;2023-05-10T08:10:20;17.35;46.45
69503;SHT31;56704;54.242;12.442;2023-05-10T08:12:46;17.41;46.21
69503;SHT31;56704;54.242;12.442;2023-05-10T08:15:13;17.51;45.92
69503;SHT31;56704;54.242;12.442;2023-05-10T08:17:39;17.64;45.75
69503;SHT31;56704;54.242;12.442;2023-05-10T08:20:08;17.74;45.24
69503;SHT31;56704;54.242;12.442;2023-05-10T08:22:36;17.74;45.29
69503;SHT31;56704;54.242;12.442;2023-05-10T08:25:04;17.75;44.61
69503;SHT31;56704;54.242;12.442;2023-05-10T08:27:31;17.72;45.03
69503;SHT31;56704;54.242;12.442;2023-05-10T08:29:57;17.65;44.41
69503;SHT31;56704;54.242;12.442;2023-05-10T08:32:24;17.76;44.29
69503;SHT31;56704;54.242;12.442;2023-05-10T08:34:51;17.90;44.63
69503;SHT31;56704;54.242;12.442;2023-05-10T08:37:17;17.88;44.50
69503;SHT31;56704;54.242;12.442;2023-05-10T08:39:45;17.75;44.85
69503;SHT31;56704;54.242;12.442;2023-05-10T08:42:16;17.89;44.34
69503;SHT31;56704;54.242;12.442;2023-05-10T08:44:47;18.02;45.25
69503;SHT31;56704;54.242;12.442;2023-05-10T08:47:16;18.02;44.88
69503;SHT31;56704;54.242;12.442;2023-05-10T08:49:47;17.99;43.97
69503;SHT31;56704;54.242;12.442;2023-05-10T08:52:15;18.05;43.99
69503;SHT31;56704;54.242;12.442;2023-05-10T08:54:42;18.16;44.31
69503;SHT31;56704;54.242;12.442;2023-05-10T08:57:11;18.36;43.82
69503;SHT31;56704;54.242;12.442;2023-05-10T08:59:38;18.36;43.40
69503;SHT31;56704;54.242;12.442;2023-05-10T09:02:05;18.16;42.82
69503;SHT31;56704;54.242;12.442;2023-05-10T09:04:31;18.26;43.82
69503;SHT31;56704;54.242;12.442;2023-05-10T09:06:58;18.29;43.52
69503;SHT31;56704;54.242;12.442;2023-05-10T09:09:25;18.63;43.78
69503;SHT31;56704;54.242;12.442;2023-05-10T09:11:52;18.50;44.44
69503;SHT31;56704;54.242;12.442;2023-05-10T09:14:23;18.74;43.78
69503;SHT31;56704;54.242;12.442;2023-05-10T09:16:50;18.74;42.43
69503;SHT31;56704;54.242;12.442;2023-05-10T09:19:17;18.78;44.21
69503;SHT31;56704;54.242;12.442;2023-05-10T09:21:43;18.56;43.35
69503;SHT31;56704;54.242;12.442;2023-05-10T09:24:10;18.53;43.55
69503;SHT31;56704;54.242;12.442;2023-05-10T09:26:45;18.87;43.89
69503;SHT31;56704;54.242;12.442;2023-05-10T09:29:14;18.74;43.12
69503;SHT31;56704;54.242;12.442;2023-05-10T09:31:46;18.83;43.10
69503;SHT31;56704;54.242;12.442;2023-05-10T09:34:17;19.14;43.71
69503;SHT31;56704;54.242;12.442;2023-05-10T09:36:55;18.94;42.88
69503;SHT31;56704;54.242;12.442;2023-05-10T09:39:29;18.89;43.65
69503;SHT31;56704;54.242;12.442;2023-05-10T09:41:57;19.01;43.87
69503;SHT31;56704;54.242;12.442;2023-05-10T09:44:25;19.12;43.58
69503;SHT31;56704;54.242;12.442;2023-05-10T09:46:53;19.45;43.95
69503;SHT31;56704;54.242;12.442;2023-05-10T09:49:20;19.52;42.95
69503;SHT31;56704;54.242;12.442;2023-05-10T09:51:47;19.28;42.81
69503;SHT31;56704;54.242;12.442;2023-05-10T09:54:15;19.43;42.54
69503;SHT31;56704;54.242;12.442;2023-05-10T09:56:42;19.32;42.28
69503;SHT31;56704;54.242;12.442;2023-05-10T09:59:10;19.39;42.51
69503;SHT31;56704;54.242;12.442;2023-05-10T10:01:37;19.47;42.53
69503;SHT31;56704;54.242;12.442;2023-05-10T10:04:07;19.60;42.59
69503;SHT31;56704;54.242;12.442;2023-05-10T10:06:37;19.60;42.08
69503;SHT31;56704;54.242;12.442;2023-05-10T10:09:04;19.65;42.09
69503;SHT31;56704;54.242;12.442;2023-05-10T10:11:33;19.73;42.07
69503;SHT31;56704;54.242;12.442;2023-05-10T10:14:00;19.87;41.63
69503;SHT31;56704;54.242;12.442;2023-05-10T10:16:28;19.96;42.03
69503;SHT31;56704;54.242;12.442;2023-05-10T10:18:55;20.08;42.22
69503;SHT31;56704;54.242;12.442;2023-05-10T10:21:24;20.03;41.66
69503;SHT31;56704;54.242;12.442;2023-05-10T10:23:51;20.15;41.14
69503;SHT31;56704;54.242;12.442;2023-05-10T10:26:18;20.39;41.98
69503;SHT31;56704;54.242;12.442;2023-05-10T10:28:51;20.21;40.14
69503;SHT31;56704;54.242;12.442;2023-05-10T10:31:27;20.82;41.36
69503;SHT31;56704;54.242;12.442;2023-05-10T10:34:05;20.77;40.24
69503;SHT31;56704;54.242;12.442;2023-05-10T10:36:40;20.73;40.71
69503;SHT31;56704;54.242;12.442;2023-05-10T10:39:09;20.58;40.57
69503;SHT31;56704;54.242;12.442;2023-05-10T10:41:38;20.89;40.34
69503;SHT31;56704;54.242;12.442;2023-05-10T10:44:25;20.85;40.01
69503;SHT31;56704;54.242;12.442;2023-05-10T10:46:59;20.96;40.13
69503;SHT31;56704;54.242;12.442;2023-05-10T10:49:26;21.10;40.49
69503;SHT31;56704;54.242;12.442;2023-05-10T10:52:23;21.19;39.98
69503;SHT31;56704;54.242;12.442;2023-05-10T10:54:58;21.08;39.84
69503;SHT31;56704;54.242;12.442;2023-05-10T10:57:26;21.26;39.92
69503;SHT31;56704;54.242;12.442;2023-05-10T11:03:04;21.95;39.75
69503;SHT31;56704;54.242;12.442;2023-05-10T11:05:36;21.98;38.33
69503;SHT31;56704;54.242;12.442;2023-05-10T11:08:10;21.78;38.67
69503;SHT31;56704;54.242;12.442;2023-05-10T11:10:37;22.16;39.63
69503;SHT31;56704;54.242;12.442;2023-05-10T11:13:06;22.30;38.01
69503;SHT31;56704;54.242;12.442;2023-05-10T11:15:33;22.46;38.54
69503;SHT31;56704;54.242;12.442;2023-05-10T11:18:17;22.73;38.16
69503;SHT31;56704;54.242;12.442;2023-05-10T11:20:44;22.52;38.32
69503;SHT31;56704;54.242;12.442;2023-05-10T11:23:14;22.70;38.23
69503;SHT31;56704;54.242;12.442;2023-05-10T11:25:43;22.80;38.19
69503;SHT31;56704;54.242;12.442;2023-05-10T11:28:10;22.19;38.03
69503;SHT31;56704;54.242;12.442;2023-05-10T11:30:38;22.53;37.50
69503;SHT31;56704;54.242;12.442;2023-05-10T11:33:05;22.86;37.18
69503;SHT31;56704;54.242;12.442;2023-05-10T11:35:37;22.67;36.71
69503;SHT31;56704;54.242;12.442;2023-05-10T11:38:06;22.88;36.61
69503;SHT31;56704;54.242;12.442;2023-05-10T11:40:34;22.93;37.46
69503;SHT31;56704;54.242;12.442;2023-05-10T11:43:02;23.08;38.22
69503;SHT31;56704;54.242;12.442;2023-05-10T11:45:28;23.05;36.88
69503;SHT31;56704;54.242;12.442;2023-05-10T11:47:57;23.18;37.41
69503;SHT31;56704;54.242;12.442;2023-05-10T11:50:24;23.69;37.59
69503;SHT31;56704;54.242;12.442;2023-05-10T11:52:51;23.29;36.74
69503;SHT31;56704;54.242;12.442;2023-05-10T11:55:18;23.79;36.74
69503;SHT31;56704;54.242;12.442;2023-05-10T11:57:46;23.29;34.85
69503;SHT31;56704;54.242;12.442;2023-05-10T12:00:14;23.39;35.93
69503;SHT31;56704;54.242;12.442;2023-05-10T12:02:41;23.42;35.51
69503;SHT31;56704;54.242;12.442;2023-05-10T12:05:08;23.80;36.39
69503;SHT31;56704;54.242;12.442;2023-05-10T12:07:36;23.72;36.25
69503;SHT31;56704;54.242;12.442;2023-05-10T12:10:04;23.90;35.07
69503;SHT31;56704;54.242;12.442;2023-05-10T12:12:42;23.80;34.91
69503;SHT31;56704;54.242;12.442;2023-05-10T12:15:17;23.82;35.65
69503;SHT31;56704;54.242;12.442;2023-05-10T12:17:44;23.86;35.15
69503;SHT31;56704;54.242;12.442;2023-05-10T12:20:16;24.12;35.43
69503;SHT31;56704;54.242;12.442;2023-05-10T12:22:47;24.24;34.46
69503;SHT31;56704;54.242;12.442;2023-05-10T12:25:15;24.34;34.34
69503;SHT31;56704;54.242;12.442;2023-05-10T12:27:48;24.33;34.36
69503;SHT31;56704;54.242;12.442;2023-05-10T12:30:20;24.33;35.56
69503;SHT31;56704;54.242;12.442;2023-05-10T12:32:49;23.96;35.00
69503;SHT31;56704;54.242;12.442;2023-05-10T12:35:18;23.97;34.09
69503;SHT31;56704;54.242;12.442;2023-05-10T12:37:47;24.31;34.36
69503;SHT31;56704;54.242;12.442;2023-05-10T12:40:14;24.34;33.69
69503;SHT31;56704;54.242;12.442;2023-05-10T12:42:40;24.20;34.17
69503;SHT31;56704;54.242;12.442;2023-05-10T12:45:08;24.84;34.57
69503;SHT31;56704;54.242;12.442;2023-05-10T12:47:37;24.81;34.10
69503;SHT31;56704;54.242;12.442;2023-05-10T12:50:05;24.99;33.44
69503;SHT31;56704;54.242;12.442;2023-05-10T12:52:31;24.75;34.08
69503;SHT31;56704;54.242;12.442;2023-05-10T12:54:58;24.58;34.42
69503;SHT31;56704;54.242;12.442;2023-05-10T12:57:25;24.53;34.56
69503;SHT31;56704;54.242;12.442;2023-05-10T12:59:52;24.37;33.83
69503;SHT31;56704;54.242;12.442;2023-05-10T13:02:19;24.78;34.39
69503;SHT31;56704;54.242;12.442;2023-05-10T13:04:48;24.86;34.08
69503;SHT31;56704;54.242;12.442;2023-05-10T13:07:14;24.55;33.55
69503;SHT31;56704;54.242;12.442;2023-05-10T13:09:41;25.06;34.17
69503;SHT31;56704;54.242;12.442;2023-05-10T13:12:08;24.91;33.45
69503;SHT31;56704;54.242;12.442;2023-05-10T13:14:35;25.06;32.96
69503;SHT31;56704;54.242;12.442;2023-05-10T13:17:02;25.85;32.54
69503;SHT31;56704;54.242;12.442;2023-05-10T13:19:28;25.59;32.04
69503;SHT31;56704;54.242;12.442;2023-05-10T13:21:56;25.60;32.63
69503;SHT31;56704;54.242;12.442;2023-05-10T13:24:23;25.64;31.91
69503;SHT31;56704;54.242;12.442;2023-05-10T13:26:49;25.70;32.73
69503;SHT31;56704;54.242;12.442;2023-05-10T13:29:16;25.47;33.72
69503;SHT31;56704;54.242;12.442;2023-05-10T13:31:43;25.13;33.52
69503;SHT31;56704;54.242;12.442;2023-05-10T13:34:10;24.84;32.97
69503;SHT31;56704;54.242;12.442;2023-05-10T13:36:37;24.96;33.91
69503;SHT31;56704;54.242;12.442;2023-05-10T13:39:05;25.29;34.71
69503;SHT31;56704;54.242;12.442;2023-05-10T13:41:32;25.32;34.12
69503;SHT31;56704;54.242;12.442;2023-05-10T13:43:59;25.78;32.97
69503;SHT31;56704;54.242;12.442;2023-05-10T13:46:25;25.43;32.59
69503;SHT31;56704;54.242;12.442;2023-05-10T13:48:52;25.16;33.54
69503;SHT31;56704;54.242;12.442;2023-05-10T13:51:19;25.08;33.66
69503;SHT31;56704;54.242;12.442;2023-05-10T13:53:45;24.96;33.79
69503;SHT31;56704;54.242;12.442;2023-05-10T13:56:14;25.01;33.59
69503;SHT31;56704;54.242;12.442;2023-05-10T13:58:41;25.29;33.42
69503;SHT31;56704;54.242;12.442;2023-05-10T14:01:07;25.32;32.88
69503;SHT31;56704;54.242;12.442;2023-05-10T14:03:34;25.33;33.23
69503;SHT31;56704;54.242;12.442;2023-05-10T14:06:01;25.18;33.32
69503;SHT31;56704;54.242;12.442;2023-05-10T14:08:27;25.27;33.05
69503;SHT31;56704;54.242;12.442;2023-05-10T14:10:54;25.64;32.97
69503;SHT31;56704;54.242;12.442;2023-05-10T14:13:23;25.64;32.94
69503;SHT31;56704;54.242;12.442;2023-05-10T14:15:50;25.64;32.89
69503;SHT31;56704;54.242;12.442;2023-05-10T14:18:16;26.28;32.45
69503;SHT31;56704;54.242;12.442;2023-05-10T14:20:43;26.43;31.57
69503;SHT31;56704;54.242;12.442;2023-05-10T14:23:10;26.08;31.75
69503;SHT31;56704;54.242;12.442;2023-05-10T14:25:36;26.28;31.52
69503;SHT31;56704;54.242;12.442;2023-05-10T14:28:04;26.43;32.03
69503;SHT31;56704;54.242;12.442;2023-05-10T14:30:32;26.57;31.59
69503;SHT31;56704;54.242;12.442;2023-05-10T14:33:00;26.70;30.74
69503;SHT31;56704;54.242;12.442;2023-05-10T14:35:28;26.43;32.01
69503;SHT31;56704;54.242;12.442;2023-05-10T14:37:56;26.25;32.22
69503;SHT31;56704;54.242;12.442;2023-05-10T14:40:22;26.06;32.31
69503;SHT31;56704;54.242;12.442;2023-05-10T14:42:51;25.94;32.78
69503;SHT31;56704;54.242;12.442;2023-05-10T14:45:18;25.77;32.96
69503;SHT31;56704;54.242;12.442;2023-05-10T14:47:46;25.81;32.65
69503;SHT31;56704;54.242;12.442;2023-05-10T14:50:13;25.57;32.88
69503;SHT31;56704;54.242;12.442;2023-05-10T14:52:40;25.54;34.08
69503;SHT31;56704;54.242;12.442;2023-05-10T14:55:08;25.73;33.19
69503;SHT31;56704;54.242;12.442;2023-05-10T14:57:35;25.66;33.73
69503;SHT31;56704;54.242;12.442;2023-05-10T15:00:02;25.66;33.69
69503;SHT31;56704;54.242;12.442;2023-05-10T15:02:28;25.78;32.70
69503;SHT31;56704;54.242;12.442;2023-05-10T15:04:56;25.62;32.69
69503;SHT31;56704;54.242;12.442;2023-05-10T15:07:23;25.49;33.07
69503;SHT31;56704;54.242;12.442;2023-05-10T15:09:50;25.51;33.60
69503;SHT31;56704;54.242;12.442;2023-05-10T15:12:17;25.71;33.74
69503;SHT31;56704;54.242;12.442;2023-05-10T15:14:44;26.00;32.79
69503;SHT31;56704;54.242;12.442;2023-05-10T15:17:10;25.64;32.79
69503;SHT31;56704;54.242;12.442;2023-05-10T15:19:37;25.29;34.01
69503;SHT31;56704;54.242;12.442;2023-05-10T15:22:05;25.22;34.35
69503;SHT31;56704;54.242;12.442;2023-05-10T15:24:32;25.44;33.78
69503;SHT31;56704;54.242;12.442;2023-05-10T15:26:58;25.62;33.27
69503;SHT31;56704;54.242;12.442;2023-05-10T15:29:25;25.15;33.30
69503;SHT31;56704;54.242;12.442;2023-05-10T15:31:51;24.75;34.82